Terminal Aerodrome Forecast
Issued by NWS Memphis, TN

Home | Current Version | Previous Version | Text Only | Print | Product List | Glossary On
Versions: 1 2 3 4 5 6 7 8 9 10 11 12 13 14 15 16 17 18 19 20
000
FTUS44 KMEG 011419 AAB
TAFMKL
TAF AMD
KMKL 011419Z 0114/0212 VRB03KT 5SM -SHRA BKN008 OVC060
     FM011700 VRB03KT 5SM -SHRA BR BKN006 OVC010
      TEMPO 0118/0122 SCT006
     FM020100 36008KT P6SM VCSH BKN008 OVC012
     FM020800 02012G18KT P6SM SCT008 OVC015=

USA.gov is the U.S. government's official web portal to all federal, state and local government web resources and services.